createdAt,value
2019-05-18T00:02:15.783Z,14.11
2019-05-18T00:04:49.037Z,14.12
2019-05-18T00:07:22.786Z,14.14
2019-05-18T00:09:56.468Z,14.14
2019-05-18T00:12:30.623Z,14.13
2019-05-18T00:15:03.456Z,14.13
2019-05-18T00:17:37.144Z,14.13
2019-05-18T00:20:10.960Z,14.11
2019-05-18T00:22:43.738Z,14.10
2019-05-18T00:25:17.769Z,14.08
2019-05-18T00:27:50.102Z,14.09
2019-05-18T00:30:23.796Z,14.06
2019-05-18T00:32:56.919Z,14.08
2019-05-18T00:35:30.238Z,14.06
2019-05-18T00:38:03.895Z,14.06
2019-05-18T00:40:37.867Z,14.06
2019-05-18T00:43:11.570Z,14.04
2019-05-18T00:45:45.697Z,14.03
2019-05-18T00:48:19.348Z,14.02
2019-05-18T00:50:52.688Z,14.02
2019-05-18T00:53:25.448Z,13.99
2019-05-18T00:55:59.170Z,13.97
2019-05-18T00:58:33.308Z,13.93
2019-05-18T01:01:06.111Z,13.90
2019-05-18T01:03:38.981Z,13.87
2019-05-18T01:06:12.786Z,13.83
2019-05-18T01:08:45.733Z,13.79
2019-05-18T01:11:18.993Z,13.75
2019-05-18T01:13:52.639Z,13.72
2019-05-18T01:16:25.913Z,13.65
2019-05-18T01:18:59.186Z,13.62
2019-05-18T01:21:32.938Z,13.57
2019-05-18T01:24:05.903Z,13.55
2019-05-18T01:26:38.160Z,13.52
2019-05-18T01:29:11.922Z,13.53
2019-05-18T01:31:45.448Z,13.50
2019-05-18T01:34:18.797Z,13.47
2019-05-18T01:36:51.967Z,13.46
2019-05-18T01:39:24.831Z,13.45
2019-05-18T01:41:58.049Z,13.44
2019-05-18T01:44:31.342Z,13.44
2019-05-18T01:47:05.159Z,13.45
2019-05-18T01:49:38.765Z,13.44
2019-05-18T01:52:12.367Z,13.45
2019-05-18T01:54:45.283Z,13.44
2019-05-18T01:57:17.990Z,13.44
2019-05-18T01:59:51.791Z,13.45
2019-05-18T02:02:25.154Z,13.45
2019-05-18T02:04:57.894Z,13.45
2019-05-18T02:07:31.925Z,13.47
2019-05-18T02:10:05.760Z,13.46
2019-05-18T02:12:39.444Z,13.45
2019-05-18T02:15:13.270Z,13.44
2019-05-18T02:17:46.799Z,13.41
2019-05-18T02:20:20.514Z,13.37
2019-05-18T02:22:53.916Z,13.33
2019-05-18T02:25:27.702Z,13.30
2019-05-18T02:28:01.457Z,13.24
2019-05-18T02:30:35.164Z,13.15
2019-05-18T02:33:10.014Z,13.14
2019-05-18T02:35:43.621Z,13.11
2019-05-18T02:38:17.483Z,13.09
2019-05-18T02:40:51.669Z,13.06
2019-05-18T02:43:25.315Z,13.03
2019-05-18T02:45:59.015Z,13.01
2019-05-18T02:48:47.671Z,12.99
2019-05-18T02:51:11.462Z,12.96
2019-05-18T02:53:43.126Z,12.94
2019-05-18T02:56:16.912Z,12.94
2019-05-18T02:58:50.655Z,12.94
2019-05-18T03:01:23.907Z,12.94
2019-05-18T03:03:57.911Z,12.93
2019-05-18T03:06:30.681Z,12.93
2019-05-18T03:09:05.673Z,12.94
2019-05-18T03:11:39.479Z,12.95
2019-05-18T03:14:13.344Z,12.94
2019-05-18T03:16:47.010Z,12.97
2019-05-18T03:19:20.287Z,12.97
2019-05-18T03:21:53.918Z,12.99
2019-05-18T03:24:27.124Z,12.98
2019-05-18T03:27:00.814Z,12.98
2019-05-18T03:29:33.618Z,12.98
2019-05-18T03:32:06.848Z,12.99
2019-05-18T03:34:40.505Z,13.01
2019-05-18T03:37:13.924Z,13.03
2019-05-18T03:39:48.176Z,13.05
2019-05-18T03:42:21.008Z,13.07
2019-05-18T03:44:54.670Z,13.10
2019-05-18T03:47:27.511Z,13.14
2019-05-18T03:50:01.216Z,13.18
2019-05-18T03:52:34.915Z,13.23
2019-05-18T03:55:07.833Z,13.27
2019-05-18T03:57:40.720Z,13.34
2019-05-18T04:00:14.814Z,13.39
2019-05-18T04:02:48.915Z,13.46
2019-05-18T04:05:22.547Z,13.52
2019-05-18T04:07:56.867Z,13.58
2019-05-18T04:10:30.405Z,13.63
2019-05-18T04:13:04.656Z,13.73
2019-05-18T04:15:38.794Z,13.79
2019-05-18T04:18:11.658Z,13.84
2019-05-18T04:20:45.301Z,13.89
2019-05-18T04:23:18.584Z,13.96
2019-05-18T04:25:51.360Z,13.99
2019-05-18T04:28:24.928Z,14.06
2019-05-18T04:30:58.728Z,14.13
2019-05-18T04:33:32.032Z,14.18
2019-05-18T04:36:04.829Z,14.24
2019-05-18T04:38:38.243Z,14.31
2019-05-18T04:41:12.048Z,14.36
2019-05-18T04:43:45.728Z,14.41
2019-05-18T04:46:19.550Z,14.48
2019-05-18T04:48:53.748Z,14.52
2019-05-18T04:51:30.647Z,14.56
2019-05-18T04:54:03.911Z,14.59
2019-05-18T04:56:37.204Z,14.66
2019-05-18T04:59:10.528Z,14.69
2019-05-18T05:01:44.636Z,14.73
2019-05-18T05:04:17.405Z,14.76
2019-05-18T05:06:50.709Z,14.79
2019-05-18T05:09:24.577Z,14.85
2019-05-18T05:11:57.897Z,14.89
2019-05-18T05:14:30.785Z,14.93
2019-05-18T05:17:04.516Z,14.99
2019-05-18T05:19:38.835Z,15.05
2019-05-18T05:22:12.898Z,15.09
2019-05-18T05:24:46.524Z,15.16
2019-05-18T05:27:19.454Z,15.21
2019-05-18T05:29:53.729Z,15.26
2019-05-18T05:32:27.661Z,15.30
2019-05-18T05:35:01.408Z,15.33
2019-05-18T05:37:36.820Z,15.38
2019-05-18T05:40:10.417Z,15.43
2019-05-18T05:42:43.776Z,15.38
2019-05-18T05:45:17.693Z,15.44
2019-05-18T05:47:51.026Z,15.43
2019-05-18T05:50:35.393Z,15.43
2019-05-18T05:53:01.082Z,15.52
2019-05-18T05:55:34.833Z,15.54
2019-05-18T05:58:08.157Z,15.56
2019-05-18T06:00:41.756Z,15.61
2019-05-18T06:03:15.387Z,15.68
2019-05-18T06:05:48.747Z,15.75
2019-05-18T06:08:22.619Z,15.81
2019-05-18T06:10:56.242Z,15.88
2019-05-18T06:13:30.920Z,15.91
2019-05-18T06:16:04.456Z,16.01
2019-05-18T06:18:38.589Z,16.05
2019-05-18T06:21:12.349Z,16.12
2019-05-18T06:23:45.973Z,16.18
2019-05-18T06:26:19.209Z,16.22
2019-05-18T06:28:52.339Z,16.28
2019-05-18T06:31:25.496Z,16.32
2019-05-18T06:33:58.410Z,16.36
2019-05-18T06:36:31.653Z,16.38
2019-05-18T06:39:05.618Z,16.44
2019-05-18T06:41:39.295Z,16.51
2019-05-18T06:44:13.273Z,16.56
2019-05-18T06:46:46.591Z,16.61
2019-05-18T06:49:19.683Z,16.65
2019-05-18T06:51:53.810Z,16.70
2019-05-18T06:54:27.498Z,16.74
2019-05-18T06:57:02.948Z,16.77
2019-05-18T06:59:37.735Z,16.80
2019-05-18T07:02:10.830Z,16.84
2019-05-18T07:04:44.787Z,16.85
2019-05-18T07:07:18.569Z,16.88
2019-05-18T07:09:52.301Z,16.92
2019-05-18T07:12:25.255Z,16.88
2019-05-18T07:15:00.474Z,16.96
2019-05-18T07:17:34.729Z,17.01
2019-05-18T07:20:07.690Z,17.05
2019-05-18T07:22:41.059Z,17.07
2019-05-18T07:25:15.325Z,17.15
2019-05-18T07:27:48.646Z,17.19
2019-05-18T07:30:23.083Z,17.21
2019-05-18T07:32:56.887Z,17.21
2019-05-18T07:35:30.762Z,17.24
2019-05-18T07:38:04.459Z,17.27
2019-05-18T07:40:37.676Z,17.24
2019-05-18T07:43:11.529Z,17.29
2019-05-18T07:45:45.229Z,17.37
2019-05-18T07:48:19.095Z,17.43
2019-05-18T07:50:52.266Z,17.51
2019-05-18T07:53:25.961Z,17.58
2019-05-18T07:56:00.105Z,17.61
2019-05-18T07:58:34.380Z,17.63
2019-05-18T08:01:07.589Z,17.67
2019-05-18T08:03:40.677Z,17.72
2019-05-18T08:06:14.494Z,17.77
2019-05-18T08:08:48.579Z,17.82
2019-05-18T08:11:22.850Z,17.85
2019-05-18T08:13:55.833Z,17.90
2019-05-18T08:16:28.320Z,17.96
2019-05-18T08:19:01.172Z,18.01
2019-05-18T08:21:34.328Z,18.07
2019-05-18T08:24:07.319Z,18.06
2019-05-18T08:26:40.200Z,18.09
2019-05-18T08:29:14.041Z,18.11
2019-05-18T08:31:46.954Z,18.13
2019-05-18T08:34:20.730Z,18.17
2019-05-18T08:36:54.043Z,18.21
2019-05-18T08:39:26.071Z,18.27
2019-05-18T08:41:59.384Z,18.32
2019-05-18T08:44:32.214Z,18.36
2019-05-18T08:47:05.415Z,18.42
2019-05-18T08:49:38.813Z,18.48
2019-05-18T08:52:11.309Z,18.54
2019-05-18T08:54:44.167Z,18.60
2019-05-18T08:57:16.588Z,18.68
2019-05-18T08:59:49.395Z,18.73
2019-05-18T09:02:22.333Z,18.80
2019-05-18T09:04:54.632Z,18.85
2019-05-18T09:07:28.139Z,18.90
2019-05-18T09:10:00.096Z,18.98
2019-05-18T09:12:33.082Z,19.05
2019-05-18T09:15:06.268Z,19.11
2019-05-18T09:17:39.200Z,19.19
2019-05-18T09:20:12.307Z,19.28
2019-05-18T09:22:44.815Z,19.36
2019-05-18T09:25:17.567Z,19.41
2019-05-18T09:27:50.381Z,19.48
2019-05-18T09:30:22.437Z,19.52
2019-05-18T09:32:55.782Z,19.57
2019-05-18T09:35:29.907Z,19.60
2019-05-18T09:38:03.211Z,19.65
2019-05-18T09:40:36.205Z,19.68
2019-05-18T09:43:09.537Z,19.73
2019-05-18T09:45:43.943Z,19.79
2019-05-18T09:48:17.313Z,19.88
2019-05-18T09:50:51.357Z,19.98
2019-05-18T09:53:25.711Z,20.09
2019-05-18T09:55:58.879Z,20.18
2019-05-18T09:58:32.068Z,20.24
2019-05-18T10:01:05.369Z,20.30
2019-05-18T10:03:38.626Z,20.36
2019-05-18T10:06:11.995Z,20.44
2019-05-18T10:08:45.501Z,20.52
2019-05-18T10:11:19.553Z,20.59
2019-05-18T10:13:52.711Z,20.66
2019-05-18T10:16:26.296Z,20.74
2019-05-18T10:19:00.390Z,20.82
2019-05-18T10:21:34.513Z,20.91
2019-05-18T10:24:07.364Z,20.99
2019-05-18T10:26:41.204Z,21.06
2019-05-18T10:29:15.498Z,21.16
2019-05-18T10:31:49.499Z,21.20
2019-05-18T10:34:23.168Z,21.21
2019-05-18T10:36:56.816Z,21.26
2019-05-18T10:39:29.857Z,21.28
2019-05-18T10:42:02.742Z,21.26
2019-05-18T10:44:35.853Z,21.32
2019-05-18T10:47:08.667Z,21.41
2019-05-18T10:49:42.430Z,21.49
2019-05-18T10:52:16.073Z,21.54
2019-05-18T10:54:49.281Z,21.62
2019-05-18T10:57:23.179Z,21.68
2019-05-18T10:59:56.881Z,21.71
2019-05-18T11:02:30.317Z,21.80
2019-05-18T11:05:03.981Z,21.88
2019-05-18T11:07:37.205Z,21.98
2019-05-18T11:10:11.247Z,22.09
2019-05-18T11:12:44.167Z,22.19
2019-05-18T11:15:18.673Z,22.30
2019-05-18T11:17:52.307Z,22.42
2019-05-18T11:20:26.294Z,22.51
2019-05-18T11:22:59.934Z,22.61
2019-05-18T11:25:34.021Z,22.73
2019-05-18T11:28:07.696Z,22.88
2019-05-18T11:30:40.456Z,23.06
2019-05-18T11:33:14.205Z,23.21
2019-05-18T11:35:47.237Z,23.35
2019-05-18T11:38:21.034Z,23.53
2019-05-18T11:40:54.774Z,23.69
2019-05-18T11:43:29.020Z,23.89
2019-05-18T11:46:02.965Z,24.15
2019-05-18T11:48:36.722Z,24.41
2019-05-18T11:51:11.016Z,24.63
2019-05-18T11:53:57.208Z,24.92
2019-05-18T11:56:19.801Z,25.25
2019-05-18T11:58:53.892Z,25.54
2019-05-18T12:01:27.235Z,25.92
2019-05-18T12:04:00.901Z,26.27
2019-05-18T12:06:35.136Z,26.72
2019-05-18T12:09:08.662Z,27.14
2019-05-18T12:11:42.461Z,27.56
2019-05-18T12:14:21.346Z,27.95
2019-05-18T12:16:54.651Z,28.39
2019-05-18T12:19:28.384Z,28.78
2019-05-18T12:22:01.981Z,29.09
2019-05-18T12:24:51.874Z,29.50
2019-05-18T12:27:28.735Z,29.84
2019-05-18T12:30:02.018Z,30.22
2019-05-18T12:32:35.782Z,30.61
2019-05-18T12:35:08.659Z,30.93
2019-05-18T12:37:42.500Z,31.18
2019-05-18T12:40:18.705Z,31.41
2019-05-18T12:42:52.036Z,31.61
2019-05-18T12:45:26.319Z,31.84
2019-05-18T12:47:59.496Z,31.89
2019-05-18T12:50:32.356Z,31.94
2019-05-18T12:53:06.478Z,32.06
2019-05-18T12:55:40.186Z,32.09
2019-05-18T12:58:13.982Z,32.19
2019-05-18T13:00:45.999Z,32.14
2019-05-18T13:03:18.750Z,31.91
2019-05-18T13:05:51.255Z,31.59
2019-05-18T13:08:24.121Z,31.58
2019-05-18T13:10:56.591Z,31.37
2019-05-18T13:13:29.558Z,31.51
2019-05-18T13:16:02.142Z,31.67
2019-05-18T13:18:34.944Z,31.98
2019-05-18T13:21:07.442Z,32.21
2019-05-18T13:23:39.893Z,32.38
2019-05-18T13:26:11.900Z,32.78
2019-05-18T13:28:45.666Z,33.10
2019-05-18T13:31:18.373Z,33.43
2019-05-18T13:33:51.237Z,33.65
2019-05-18T13:36:23.955Z,33.86
2019-05-18T13:38:57.302Z,34.08
2019-05-18T13:41:29.753Z,34.27
2019-05-18T13:44:02.704Z,34.20
2019-05-18T13:46:35.607Z,34.19
2019-05-18T13:49:08.439Z,34.16
2019-05-18T13:51:41.583Z,34.22
2019-05-18T13:54:14.531Z,34.26
2019-05-18T13:56:48.019Z,34.57
2019-05-18T13:59:20.005Z,34.87
2019-05-18T14:01:55.043Z,35.19
2019-05-18T14:04:27.897Z,35.28
2019-05-18T14:07:00.412Z,35.52
2019-05-18T14:09:33.538Z,35.83
2019-05-18T14:12:06.477Z,36.08
2019-05-18T14:14:40.743Z,36.29
2019-05-18T14:17:13.813Z,36.44
2019-05-18T14:19:47.140Z,36.61
2019-05-18T14:22:20.224Z,36.71
2019-05-18T14:24:54.176Z,36.16
2019-05-18T14:27:26.577Z,35.71
2019-05-18T14:29:59.376Z,35.87
2019-05-18T14:32:32.170Z,36.15
2019-05-18T14:35:05.025Z,36.34
2019-05-18T14:37:38.045Z,36.63
2019-05-18T14:40:11.202Z,36.76
2019-05-18T14:42:43.635Z,36.81
2019-05-18T14:45:17.085Z,36.99
2019-05-18T14:47:49.082Z,36.51
2019-05-18T14:50:22.291Z,36.68
2019-05-18T14:52:55.239Z,36.94
2019-05-18T14:55:33.877Z,37.11
2019-05-18T14:58:02.743Z,37.06
2019-05-18T15:00:35.870Z,37.08
2019-05-18T15:03:08.359Z,37.13
2019-05-18T15:05:41.720Z,37.36
2019-05-18T15:08:15.604Z,36.58
2019-05-18T15:10:48.397Z,36.80
2019-05-18T15:13:20.821Z,36.86
2019-05-18T15:15:53.862Z,36.90
2019-05-18T15:18:26.270Z,36.99
2019-05-18T15:20:59.511Z,37.30
2019-05-18T15:23:32.830Z,37.37
2019-05-18T15:26:06.699Z,36.76
2019-05-18T15:28:39.933Z,36.78
2019-05-18T15:31:11.921Z,37.00
2019-05-18T15:33:45.074Z,37.20
2019-05-18T15:36:18.223Z,37.47
2019-05-18T15:38:51.107Z,37.65
2019-05-18T15:41:25.372Z,37.85
2019-05-18T15:43:59.138Z,37.34
2019-05-18T15:46:32.767Z,37.20
2019-05-18T15:49:05.678Z,37.32
2019-05-18T15:51:38.973Z,37.38
2019-05-18T15:54:13.057Z,37.45
2019-05-18T15:56:46.800Z,37.50
2019-05-18T15:59:20.098Z,37.42
2019-05-18T16:01:53.438Z,37.27
2019-05-18T16:04:26.804Z,37.35
2019-05-18T16:07:00.529Z,37.50
2019-05-18T16:09:34.436Z,37.56
2019-05-18T16:12:08.197Z,37.62
2019-05-18T16:14:41.507Z,37.51
2019-05-18T16:17:14.770Z,37.20
2019-05-18T16:19:47.592Z,37.04
2019-05-18T16:22:21.370Z,36.69
2019-05-18T16:24:55.662Z,35.75
2019-05-18T16:27:29.567Z,34.93
2019-05-18T16:30:02.887Z,34.38
2019-05-18T16:32:36.996Z,33.42
2019-05-18T16:35:11.551Z,33.11
2019-05-18T16:37:44.796Z,32.97
2019-05-18T16:40:18.485Z,32.62
2019-05-18T16:42:52.366Z,32.04
2019-05-18T16:45:25.778Z,31.44
2019-05-18T16:47:59.495Z,31.07
2019-05-18T16:50:33.561Z,30.68
2019-05-18T16:53:06.866Z,30.20
2019-05-18T16:55:40.667Z,29.67
2019-05-18T16:58:14.408Z,29.47
2019-05-18T17:00:49.463Z,29.10
2019-05-18T17:03:23.193Z,28.87
2019-05-18T17:05:55.950Z,28.76
2019-05-18T17:08:29.319Z,28.86
2019-05-18T17:11:02.620Z,28.87
2019-05-18T17:13:35.427Z,28.83
2019-05-18T17:16:08.849Z,28.80
2019-05-18T17:18:41.767Z,28.75
2019-05-18T17:21:15.981Z,28.68
2019-05-18T17:23:49.547Z,28.58
2019-05-18T17:26:23.772Z,28.55
2019-05-18T17:28:57.015Z,28.51
2019-05-18T17:31:31.150Z,28.50
2019-05-18T17:34:05.498Z,28.53
2019-05-18T17:36:39.188Z,28.52
2019-05-18T17:39:11.869Z,28.51
2019-05-18T17:41:45.776Z,28.54
2019-05-18T17:44:19.877Z,28.47
2019-05-18T17:46:53.540Z,28.42
2019-05-18T17:49:27.594Z,28.34
2019-05-18T17:52:00.862Z,28.26
2019-05-18T17:54:34.795Z,28.07
2019-05-18T17:57:09.334Z,27.88
2019-05-18T17:59:43.908Z,27.67
2019-05-18T18:02:17.106Z,27.47
2019-05-18T18:04:54.081Z,27.27
2019-05-18T18:07:25.516Z,27.05
2019-05-18T18:09:58.846Z,26.83
2019-05-18T18:12:32.486Z,26.61
2019-05-18T18:15:06.524Z,26.37
2019-05-18T18:17:39.844Z,26.14
2019-05-18T18:20:14.835Z,25.93
2019-05-18T18:22:48.555Z,25.74
2019-05-18T18:25:22.364Z,25.55
2019-05-18T18:27:55.633Z,25.39
2019-05-18T18:30:28.121Z,25.23
2019-05-18T18:33:02.331Z,25.08
2019-05-18T18:35:43.710Z,24.93
2019-05-18T18:38:17.930Z,24.76
2019-05-18T18:40:51.736Z,24.61
2019-05-18T18:43:28.230Z,24.44
2019-05-18T18:46:01.458Z,24.31
2019-05-18T18:48:34.821Z,24.16
2019-05-18T18:51:09.008Z,24.02
2019-05-18T18:53:42.710Z,23.87
2019-05-18T18:56:16.465Z,23.74
2019-05-18T18:58:50.095Z,23.61
2019-05-18T19:01:23.403Z,23.46
2019-05-18T19:03:57.072Z,23.34
2019-05-18T19:06:30.026Z,23.23
2019-05-18T19:09:03.481Z,23.11
2019-05-18T19:11:36.793Z,22.99
2019-05-18T19:14:10.638Z,22.88
2019-05-18T19:16:43.403Z,22.77
2019-05-18T19:19:16.653Z,22.67
2019-05-18T19:21:50.501Z,22.60
2019-05-18T19:24:23.759Z,22.51
2019-05-18T19:26:57.502Z,22.43
2019-05-18T19:29:30.267Z,22.37
2019-05-18T19:32:03.635Z,22.30
2019-05-18T19:34:37.346Z,22.22
2019-05-18T19:37:10.977Z,22.11
2019-05-18T19:39:44.802Z,22.00
2019-05-18T19:42:18.536Z,21.92
2019-05-18T19:44:51.849Z,21.87
2019-05-18T19:47:25.674Z,21.79
2019-05-18T19:49:59.514Z,21.68
2019-05-18T19:52:33.252Z,21.61
2019-05-18T19:55:07.059Z,21.56
2019-05-18T19:57:40.366Z,21.52
2019-05-18T20:00:15.660Z,21.49
2019-05-18T20:02:49.347Z,21.47
2019-05-18T20:05:25.514Z,21.43
2019-05-18T20:07:58.366Z,21.41
2019-05-18T20:10:30.877Z,21.40
2019-05-18T20:13:03.784Z,21.40
2019-05-18T20:15:36.203Z,21.38
2019-05-18T20:18:08.743Z,21.34
2019-05-18T20:20:42.369Z,21.32
2019-05-18T20:23:14.440Z,21.28
2019-05-18T20:25:46.405Z,21.28
2019-05-18T20:28:23.668Z,21.25
2019-05-18T20:30:54.329Z,21.10
2019-05-18T20:33:27.656Z,21.03
2019-05-18T20:36:00.402Z,20.98
2019-05-18T20:38:33.789Z,20.96
2019-05-18T20:41:06.700Z,20.94
2019-05-18T20:43:40.341Z,20.89
2019-05-18T20:46:13.576Z,20.83
2019-05-18T20:48:46.995Z,20.78
2019-05-18T20:51:20.328Z,20.74
2019-05-18T20:53:52.379Z,20.69
2019-05-18T20:56:24.916Z,20.65
2019-05-18T20:58:58.373Z,20.62
2019-05-18T21:01:32.450Z,20.59
2019-05-18T21:04:06.155Z,20.58
2019-05-18T21:06:39.119Z,20.58
2019-05-18T21:09:11.937Z,20.57
2019-05-18T21:11:45.653Z,20.59
2019-05-18T21:14:19.551Z,20.58
2019-05-18T21:16:52.308Z,20.54
2019-05-18T21:19:24.781Z,20.52
2019-05-18T21:21:58.629Z,20.48
2019-05-18T21:24:32.823Z,20.44
2019-05-18T21:27:06.403Z,20.37
2019-05-18T21:29:40.233Z,20.32
2019-05-18T21:32:14.241Z,20.28
2019-05-18T21:34:48.071Z,20.23
2019-05-18T21:37:21.254Z,20.20
2019-05-18T21:39:54.664Z,20.13
2019-05-18T21:42:28.155Z,20.10
2019-05-18T21:45:02.060Z,20.09
2019-05-18T21:47:36.152Z,20.09
2019-05-18T21:50:09.385Z,20.03
2019-05-18T21:52:42.656Z,20.01
2019-05-18T21:55:17.188Z,20.01
2019-05-18T21:57:49.920Z,19.97
2019-05-18T22:00:24.821Z,19.96
2019-05-18T22:02:58.033Z,19.95
2019-05-18T22:05:31.776Z,19.90
2019-05-18T22:08:05.109Z,19.88
2019-05-18T22:10:37.948Z,19.85
2019-05-18T22:13:11.670Z,19.81
2019-05-18T22:15:45.460Z,19.80
2019-05-18T22:18:24.687Z,19.82
2019-05-18T22:20:53.671Z,19.83
2019-05-18T22:23:26.976Z,19.84
2019-05-18T22:26:00.292Z,19.80
2019-05-18T22:28:33.488Z,19.75
2019-05-18T22:31:06.744Z,19.70
2019-05-18T22:33:40.016Z,19.64
2019-05-18T22:36:13.824Z,19.59
2019-05-18T22:38:47.074Z,19.54
2019-05-18T22:41:20.339Z,19.50
2019-05-18T22:43:53.161Z,19.44
2019-05-18T22:46:26.815Z,19.38
2019-05-18T22:49:00.579Z,19.35
2019-05-18T22:51:34.861Z,19.30
2019-05-18T22:54:08.469Z,19.27
2019-05-18T22:56:41.752Z,19.27
2019-05-18T22:59:14.628Z,19.27
2019-05-18T23:01:47.838Z,19.27
2019-05-18T23:04:21.552Z,19.27
2019-05-18T23:06:54.926Z,19.26
2019-05-18T23:09:29.077Z,19.24
2019-05-18T23:12:03.269Z,19.21
2019-05-18T23:14:37.014Z,19.18
2019-05-18T23:17:10.188Z,19.17
2019-05-18T23:19:43.145Z,19.16
2019-05-18T23:22:16.782Z,19.11
2019-05-18T23:24:50.993Z,19.08
2019-05-18T23:27:24.247Z,19.06
2019-05-18T23:29:57.102Z,19.03
2019-05-18T23:32:30.877Z,19.01
2019-05-18T23:35:04.227Z,19.01
2019-05-18T23:37:37.426Z,18.98
2019-05-18T23:40:11.313Z,18.94
2019-05-18T23:42:44.958Z,18.85
2019-05-18T23:45:18.781Z,18.77
2019-05-18T23:47:51.617Z,18.71
2019-05-18T23:50:25.355Z,18.70
2019-05-18T23:52:58.951Z,18.66
2019-05-18T23:55:33.146Z,18.65
2019-05-18T23:58:06.956Z,18.63
